createdAt,value
2023-01-18T00:00:22.120Z,68.74
2023-01-18T00:01:22.022Z,68.29
2023-01-18T00:02:21.935Z,66.06
2023-01-18T00:03:21.930Z,65.88
2023-01-18T00:04:21.896Z,66.35
2023-01-18T00:05:21.892Z,64.73
2023-01-18T00:06:21.902Z,65.57
2023-01-18T00:07:21.893Z,67.19
2023-01-18T00:08:21.828Z,65.39
2023-01-18T00:09:21.818Z,64.57
2023-01-18T00:10:21.790Z,67.58
2023-01-18T00:11:21.789Z,67.67
2023-01-18T00:12:21.789Z,65.74
2023-01-18T00:13:53.607Z,67.78
2023-01-18T00:14:21.727Z,63.32
2023-01-18T00:15:21.706Z,65.26
2023-01-18T00:16:21.783Z,66.58
2023-01-18T00:17:21.694Z,67.74
2023-01-18T00:18:21.664Z,67.03
2023-01-18T00:19:21.634Z,68.09
2023-01-18T00:20:21.632Z,66.76
2023-01-18T00:21:21.599Z,65.91
2023-01-18T00:22:21.619Z,66.54
2023-01-18T00:23:21.569Z,67.66
2023-01-18T00:24:21.569Z,63.92
2023-01-18T00:25:21.536Z,66.68
2023-01-18T00:26:21.590Z,66.72
2023-01-18T00:27:21.533Z,66.82
2023-01-18T00:28:21.489Z,67.50
2023-01-18T00:29:21.461Z,64.89
2023-01-18T00:30:21.457Z,64.74
2023-01-18T00:31:21.528Z,67.31
2023-01-18T00:32:21.518Z,67.06
2023-01-18T00:33:21.435Z,68.41
2023-01-18T00:34:21.374Z,69.00
2023-01-18T00:35:21.351Z,67.01
2023-01-18T00:36:21.335Z,68.15
2023-01-18T00:37:22.354Z,65.87
2023-01-18T00:38:21.301Z,65.41
2023-01-18T00:39:21.317Z,68.25
2023-01-18T00:40:21.279Z,67.18
2023-01-18T00:41:21.254Z,67.31
2023-01-18T00:42:21.283Z,67.40
2023-01-18T00:43:21.216Z,65.43
2023-01-18T00:44:21.194Z,65.40
2023-01-18T00:45:21.214Z,68.22
2023-01-18T00:46:21.175Z,65.96
2023-01-18T00:47:21.172Z,66.10
2023-01-18T00:48:21.199Z,67.59
2023-01-18T00:49:21.121Z,66.43
2023-01-18T00:50:21.088Z,66.35
2023-01-18T00:51:21.086Z,67.17
2023-01-18T00:52:21.117Z,67.11
2023-01-18T00:53:21.055Z,68.33
2023-01-18T00:54:21.019Z,66.95
2023-01-18T00:55:21.006Z,66.71
2023-01-18T00:56:20.998Z,67.81
2023-01-18T00:57:20.995Z,68.34
2023-01-18T00:58:20.971Z,68.18
2023-01-18T00:59:20.943Z,67.85
2023-01-18T01:00:20.914Z,66.79
2023-01-18T01:01:20.984Z,66.22
2023-01-18T01:02:20.929Z,67.97
2023-01-18T01:03:20.861Z,65.94
2023-01-18T01:04:20.839Z,69.76
2023-01-18T01:05:20.822Z,69.37
2023-01-18T01:06:20.816Z,68.35
2023-01-18T01:07:20.837Z,69.58
2023-01-18T01:08:20.772Z,65.90
2023-01-18T01:09:20.757Z,65.20
2023-01-18T01:10:21.737Z,67.76
2023-01-18T01:11:20.720Z,66.80
2023-01-18T01:12:20.761Z,68.75
2023-01-18T01:13:20.693Z,65.84
2023-01-18T01:14:20.679Z,69.26
2023-01-18T01:15:20.650Z,67.62
2023-01-18T01:16:20.668Z,67.78
2023-01-18T01:17:20.650Z,66.79
2023-01-18T01:18:20.606Z,67.89
2023-01-18T01:19:20.587Z,66.49
2023-01-18T01:20:20.574Z,66.74
2023-01-18T01:21:20.551Z,67.66
2023-01-18T01:22:20.596Z,66.22
2023-01-18T01:23:20.556Z,66.57
2023-01-18T01:24:20.498Z,66.72
2023-01-18T01:25:20.489Z,64.99
2023-01-18T01:26:20.457Z,65.23
2023-01-18T01:27:20.477Z,66.57
2023-01-18T01:28:20.421Z,66.82
2023-01-18T01:29:20.407Z,65.97
2023-01-18T01:30:20.398Z,66.05
2023-01-18T01:31:20.393Z,68.18
2023-01-18T01:32:20.399Z,65.98
2023-01-18T01:33:20.349Z,67.34
2023-01-18T01:34:20.315Z,65.81
2023-01-18T01:35:20.305Z,67.14
2023-01-18T01:36:20.290Z,67.32
2023-01-18T01:37:20.291Z,69.12
2023-01-18T01:38:20.246Z,67.68
2023-01-18T01:39:20.239Z,70.12
2023-01-18T01:40:20.216Z,66.65
2023-01-18T01:41:20.199Z,67.01
2023-01-18T01:42:20.215Z,69.20
2023-01-18T01:43:20.162Z,68.32
2023-01-18T01:44:20.169Z,67.32
2023-01-18T01:45:20.134Z,66.91
2023-01-18T01:46:20.120Z,70.42
2023-01-18T01:47:20.139Z,66.74
2023-01-18T01:48:20.083Z,68.19
2023-01-18T01:49:20.067Z,68.21
2023-01-18T01:50:20.056Z,68.33
2023-01-18T01:51:20.024Z,69.01
2023-01-18T01:52:20.031Z,67.18
2023-01-18T01:53:19.986Z,68.51
2023-01-18T01:54:19.988Z,68.13
2023-01-18T01:55:19.953Z,67.70
2023-01-18T01:56:19.963Z,65.84
2023-01-18T01:57:19.962Z,65.92
2023-01-18T01:58:19.902Z,67.71
2023-01-18T01:59:19.879Z,66.08
2023-01-18T02:00:19.921Z,67.45
2023-01-18T02:01:19.940Z,69.17
2023-01-18T02:02:19.875Z,65.14
2023-01-18T02:03:19.811Z,68.67
2023-01-18T02:04:19.799Z,66.76
2023-01-18T02:05:19.780Z,65.33
2023-01-18T02:06:19.756Z,66.15
2023-01-18T02:07:19.925Z,68.27
2023-01-18T02:08:19.723Z,69.37
2023-01-18T02:09:19.719Z,69.14
2023-01-18T02:10:19.684Z,68.92
2023-01-18T02:11:19.680Z,67.94
2023-01-18T02:12:19.707Z,70.30
2023-01-18T02:13:19.647Z,66.60
2023-01-18T02:14:19.625Z,67.60
2023-01-18T02:15:20.330Z,66.11
2023-01-18T02:16:20.744Z,66.56
2023-01-18T02:17:19.609Z,65.88
2023-01-18T02:18:19.549Z,66.55
2023-01-18T02:19:19.539Z,67.06
2023-01-18T02:20:19.579Z,67.64
2023-01-18T02:21:19.507Z,66.56
2023-01-18T02:22:19.509Z,66.85
2023-01-18T02:23:19.465Z,66.95
2023-01-18T02:24:19.462Z,67.94
2023-01-18T02:25:19.427Z,67.32
2023-01-18T02:26:19.408Z,70.78
2023-01-18T02:27:19.429Z,68.12
2023-01-18T02:28:19.375Z,67.73
2023-01-18T02:29:19.363Z,66.53
2023-01-18T02:30:19.337Z,72.62
2023-01-18T02:31:19.319Z,69.04
2023-01-18T02:32:19.328Z,66.79
2023-01-18T02:33:19.280Z,64.69
2023-01-18T02:34:19.273Z,67.08
2023-01-18T02:35:19.248Z,67.21
2023-01-18T02:36:19.229Z,67.54
2023-01-18T02:37:19.245Z,70.74
2023-01-18T02:38:20.192Z,69.44
2023-01-18T02:39:19.180Z,66.66
2023-01-18T02:40:19.168Z,64.14
2023-01-18T02:41:19.154Z,67.53
2023-01-18T02:42:19.161Z,68.97
2023-01-18T02:43:19.120Z,70.48
2023-01-18T02:44:19.094Z,67.40
2023-01-18T02:45:19.071Z,68.76
2023-01-18T02:46:19.087Z,69.78
2023-01-18T02:47:19.066Z,67.80
2023-01-18T02:48:19.021Z,66.43
2023-01-18T02:49:19.028Z,67.65
2023-01-18T02:50:18.979Z,67.52
2023-01-18T02:51:18.966Z,69.48
2023-01-18T02:52:18.982Z,67.36
2023-01-18T02:53:18.939Z,65.95
2023-01-18T02:54:18.911Z,68.92
2023-01-18T02:55:18.891Z,69.89
2023-01-18T02:56:18.877Z,67.21
2023-01-18T02:57:18.880Z,70.13
2023-01-18T02:58:18.899Z,67.89
2023-01-18T02:59:18.850Z,65.83
2023-01-18T03:00:18.812Z,63.87
2023-01-18T03:01:18.895Z,70.82
2023-01-18T03:02:18.812Z,67.44
2023-01-18T03:03:18.856Z,68.43
2023-01-18T03:04:18.736Z,67.91
2023-01-18T03:05:18.728Z,65.36
2023-01-18T03:06:18.709Z,68.54
2023-01-18T03:07:18.688Z,67.62
2023-01-18T03:08:18.699Z,65.44
2023-01-18T03:09:18.653Z,68.89
2023-01-18T03:10:18.630Z,68.31
2023-01-18T03:11:18.639Z,66.54
2023-01-18T03:12:18.597Z,69.51
2023-01-18T03:13:18.607Z,69.04
2023-01-18T03:14:18.560Z,69.02
2023-01-18T03:15:18.588Z,66.67
2023-01-18T03:16:18.567Z,67.20
2023-01-18T03:17:18.578Z,66.26
2023-01-18T03:18:18.602Z,67.51
2023-01-18T03:19:18.488Z,69.81
2023-01-18T03:20:18.490Z,68.85
2023-01-18T03:21:18.490Z,67.68
2023-01-18T03:22:18.445Z,69.40
2023-01-18T03:23:18.444Z,70.48
2023-01-18T03:24:18.408Z,69.03
2023-01-18T03:25:18.372Z,69.26
2023-01-18T03:26:18.374Z,69.04
2023-01-18T03:27:18.341Z,68.59
2023-01-18T03:28:18.346Z,68.51
2023-01-18T03:29:18.303Z,68.38
2023-01-18T03:30:18.303Z,68.68
2023-01-18T03:31:18.319Z,67.39
2023-01-18T03:32:18.263Z,68.41
2023-01-18T03:33:18.264Z,69.93
2023-01-18T03:34:18.219Z,68.30
2023-01-18T03:35:18.207Z,70.81
2023-01-18T03:36:18.184Z,70.52
2023-01-18T03:37:18.193Z,68.89
2023-01-18T03:38:18.204Z,70.11
2023-01-18T03:39:18.144Z,69.63
2023-01-18T03:40:18.117Z,69.65
2023-01-18T03:41:18.120Z,70.35
2023-01-18T03:42:18.082Z,67.01
2023-01-18T03:43:18.110Z,68.57
2023-01-18T03:44:18.043Z,70.42
2023-01-18T03:45:18.034Z,69.57
2023-01-18T03:46:18.083Z,70.96
2023-01-18T03:47:17.992Z,68.43
2023-01-18T03:48:18.010Z,69.36
2023-01-18T03:49:17.967Z,68.25
2023-01-18T03:50:17.946Z,66.60
2023-01-18T03:51:17.922Z,67.70
2023-01-18T03:52:17.916Z,67.24
2023-01-18T03:53:17.933Z,69.47
2023-01-18T03:54:17.890Z,70.54
2023-01-18T03:55:17.847Z,69.97
2023-01-18T03:56:17.849Z,68.16
2023-01-18T03:57:17.828Z,68.16
2023-01-18T03:58:17.833Z,69.03
2023-01-18T03:59:17.783Z,68.75
2023-01-18T04:00:17.779Z,67.68
2023-01-18T04:01:17.840Z,66.61
2023-01-18T04:02:17.756Z,65.63
2023-01-18T04:03:17.753Z,69.50
2023-01-18T04:04:17.701Z,69.56
2023-01-18T04:05:17.737Z,68.67
2023-01-18T04:06:17.834Z,69.10
2023-01-18T04:07:17.648Z,68.79
2023-01-18T04:08:17.657Z,69.55
2023-01-18T04:09:17.616Z,69.79
2023-01-18T04:10:17.596Z,69.14
2023-01-18T04:11:17.590Z,69.84
2023-01-18T04:12:17.563Z,68.17
2023-01-18T04:13:17.584Z,70.30
2023-01-18T04:14:17.522Z,69.86
2023-01-18T04:15:17.517Z,69.83
2023-01-18T04:16:17.543Z,71.26
2023-01-18T04:17:17.483Z,69.89
2023-01-18T04:18:17.502Z,66.95
2023-01-18T04:19:17.457Z,70.61
2023-01-18T04:20:17.422Z,69.22
2023-01-18T04:21:17.416Z,70.45
2023-01-18T04:22:17.381Z,71.44
2023-01-18T04:23:17.393Z,69.11
2023-01-18T04:24:17.351Z,70.57
2023-01-18T04:25:17.332Z,71.56
2023-01-18T04:26:17.314Z,70.22
2023-01-18T04:27:17.298Z,70.89
2023-01-18T04:28:17.303Z,70.38
2023-01-18T04:29:17.266Z,69.67
2023-01-18T04:30:17.271Z,69.89
2023-01-18T04:31:17.276Z,71.26
2023-01-18T04:32:17.200Z,71.18
2023-01-18T04:33:18.218Z,70.51
2023-01-18T04:34:17.180Z,71.00
2023-01-18T04:35:17.153Z,69.67
2023-01-18T04:36:17.195Z,68.94
2023-01-18T04:37:17.123Z,69.29
2023-01-18T04:38:17.139Z,69.96
2023-01-18T04:39:17.080Z,71.19
2023-01-18T04:40:17.080Z,70.36
2023-01-18T04:41:17.073Z,70.10
2023-01-18T04:42:17.044Z,69.29
2023-01-18T04:43:17.041Z,69.65
2023-01-18T04:44:17.009Z,71.64
2023-01-18T04:45:16.984Z,71.41
2023-01-18T04:46:16.988Z,70.05
2023-01-18T04:47:16.946Z,71.05
2023-01-18T04:48:16.953Z,72.00
2023-01-18T04:49:16.918Z,70.85
2023-01-18T04:50:16.899Z,71.16
2023-01-18T04:51:16.871Z,70.62
2023-01-18T04:52:18.964Z,69.94
2023-01-18T04:53:16.875Z,70.38
2023-01-18T04:54:16.822Z,70.27
2023-01-18T04:55:16.824Z,70.09
2023-01-18T04:56:16.803Z,72.24
2023-01-18T04:57:16.794Z,72.40
2023-01-18T04:58:16.790Z,72.27
2023-01-18T04:59:16.830Z,70.93
2023-01-18T05:00:16.725Z,72.01
2023-01-18T05:01:16.841Z,69.86
2023-01-18T05:02:16.698Z,70.33
2023-01-18T05:03:16.705Z,71.71
2023-01-18T05:04:16.765Z,69.81
2023-01-18T05:05:16.640Z,69.03
2023-01-18T05:06:16.617Z,70.53
2023-01-18T05:07:16.597Z,71.00
2023-01-18T05:08:16.606Z,72.64
2023-01-18T05:09:16.563Z,71.47
2023-01-18T05:10:16.574Z,71.05
2023-01-18T05:11:16.536Z,71.93
2023-01-18T05:12:16.509Z,71.44
2023-01-18T05:13:16.538Z,72.76
2023-01-18T05:14:16.492Z,70.94
2023-01-18T05:15:17.483Z,71.12
2023-01-18T05:16:16.467Z,70.83
2023-01-18T05:17:16.421Z,71.46
2023-01-18T05:18:16.441Z,69.46
2023-01-18T05:19:16.392Z,72.84
2023-01-18T05:20:16.378Z,69.63
2023-01-18T05:21:16.374Z,72.04
2023-01-18T05:22:16.364Z,71.14
2023-01-18T05:23:16.347Z,70.32
2023-01-18T05:24:16.309Z,71.44
2023-01-18T05:25:16.285Z,71.43
2023-01-18T05:26:16.265Z,70.23
2023-01-18T05:27:16.249Z,70.24
2023-01-18T05:28:16.263Z,69.30
2023-01-18T05:29:16.216Z,71.28
2023-01-18T05:30:16.227Z,71.70
2023-01-18T05:31:16.264Z,71.16
2023-01-18T05:32:16.165Z,69.47
2023-01-18T05:33:16.183Z,69.96
2023-01-18T05:34:16.129Z,70.50
2023-01-18T05:35:16.127Z,72.05
2023-01-18T05:36:16.090Z,72.45
2023-01-18T05:37:16.085Z,72.34
2023-01-18T05:38:16.091Z,72.14
2023-01-18T05:39:16.053Z,71.68
2023-01-18T05:40:16.023Z,72.64
2023-01-18T05:41:16.011Z,72.30
2023-01-18T05:42:15.999Z,72.23
2023-01-18T05:43:16.008Z,72.52
2023-01-18T05:44:15.984Z,72.72
2023-01-18T05:45:15.944Z,72.15
2023-01-18T05:46:15.950Z,71.94
2023-01-18T05:47:15.912Z,71.48
2023-01-18T05:48:15.948Z,71.49
2023-01-18T05:49:15.880Z,70.12
2023-01-18T05:50:15.875Z,71.61
2023-01-18T05:51:15.850Z,72.34
2023-01-18T05:52:15.828Z,71.94
2023-01-18T05:53:15.849Z,71.88
2023-01-18T05:54:15.818Z,70.95
2023-01-18T05:55:15.773Z,70.18
2023-01-18T05:56:15.755Z,72.09
2023-01-18T05:57:15.735Z,71.20
2023-01-18T05:58:15.723Z,72.26
2023-01-18T05:59:15.742Z,71.27
2023-01-18T06:00:15.693Z,72.16
2023-01-18T06:01:15.698Z,73.15
2023-01-18T06:02:15.673Z,72.74
2023-01-18T06:03:15.631Z,70.97
2023-01-18T06:04:15.678Z,72.09
2023-01-18T06:05:15.614Z,70.64
2023-01-18T06:06:15.572Z,68.21
2023-01-18T06:07:15.575Z,73.13
2023-01-18T06:08:15.546Z,72.86
2023-01-18T06:09:15.554Z,71.77
2023-01-18T06:10:15.508Z,70.82
2023-01-18T06:11:15.499Z,71.16
2023-01-18T06:12:15.501Z,70.71
2023-01-18T06:13:15.462Z,70.44
2023-01-18T06:14:32.339Z,70.10
2023-01-18T06:15:15.425Z,73.01
2023-01-18T06:16:15.430Z,71.71
2023-01-18T06:17:15.409Z,72.37
2023-01-18T06:18:15.376Z,71.36
2023-01-18T06:19:15.388Z,71.85
2023-01-18T06:20:15.364Z,72.86
2023-01-18T06:21:15.337Z,71.75
2023-01-18T06:22:15.312Z,72.13
2023-01-18T06:23:15.299Z,71.53
2023-01-18T06:24:15.326Z,71.97
2023-01-18T06:25:15.269Z,70.64
2023-01-18T06:26:15.238Z,70.22
2023-01-18T06:27:15.224Z,72.21
2023-01-18T06:28:15.204Z,72.16
2023-01-18T06:29:15.217Z,71.82
2023-01-18T06:30:15.169Z,70.22
2023-01-18T06:31:15.145Z,69.65
2023-01-18T06:32:15.127Z,71.79
2023-01-18T06:33:15.150Z,70.80
2023-01-18T06:34:15.123Z,70.16
2023-01-18T06:35:15.073Z,70.82
2023-01-18T06:36:15.077Z,72.75
2023-01-18T06:37:15.047Z,71.26
2023-01-18T06:38:15.046Z,69.94
2023-01-18T06:39:15.057Z,71.88
2023-01-18T06:40:15.006Z,69.60
2023-01-18T06:41:15.006Z,72.71
2023-01-18T06:42:14.984Z,73.26
2023-01-18T06:43:14.937Z,72.08
2023-01-18T06:44:14.962Z,69.91
2023-01-18T06:45:14.954Z,73.23
2023-01-18T06:46:14.947Z,72.60
2023-01-18T06:47:14.871Z,71.53
2023-01-18T06:48:14.857Z,72.60
2023-01-18T06:49:14.871Z,70.80
2023-01-18T06:50:14.815Z,70.52
2023-01-18T06:51:14.815Z,71.35
2023-01-18T06:52:14.778Z,69.95
2023-01-18T06:53:14.804Z,71.66
2023-01-18T06:54:14.793Z,68.52
2023-01-18T06:55:14.741Z,71.57
2023-01-18T06:56:14.724Z,71.33
2023-01-18T06:57:14.711Z,71.74
2023-01-18T06:58:14.687Z,71.06
2023-01-18T06:59:14.696Z,71.07
2023-01-18T07:00:14.647Z,72.39
2023-01-18T07:01:14.711Z,71.34
2023-01-18T07:02:14.613Z,70.85
2023-01-18T07:03:14.601Z,70.73
2023-01-18T07:04:14.631Z,71.71
2023-01-18T07:05:14.593Z,69.62
2023-01-18T07:06:14.550Z,70.95
2023-01-18T07:07:14.528Z,71.34
2023-01-18T07:08:14.509Z,70.91
2023-01-18T07:09:14.532Z,70.79
2023-01-18T07:10:16.447Z,69.88
2023-01-18T07:11:15.463Z,69.82
2023-01-18T07:12:14.455Z,71.97
2023-01-18T07:13:14.421Z,71.22
2023-01-18T07:14:14.439Z,72.24
2023-01-18T07:15:21.564Z,71.18
2023-01-18T07:16:16.391Z,73.42
2023-01-18T07:17:14.399Z,72.17
2023-01-18T07:18:14.343Z,69.41
2023-01-18T07:19:14.352Z,71.90
2023-01-18T07:20:14.308Z,72.90
2023-01-18T07:21:15.290Z,70.59
2023-01-18T07:22:15.274Z,69.85
2023-01-18T07:23:14.248Z,71.40
2023-01-18T07:24:14.352Z,70.91
2023-01-18T07:25:14.211Z,70.34
2023-01-18T07:26:14.212Z,69.08
2023-01-18T07:27:14.207Z,72.41
2023-01-18T07:28:14.192Z,69.86
2023-01-18T07:29:14.187Z,70.93
2023-01-18T07:30:14.184Z,71.85
2023-01-18T07:31:14.119Z,69.84
2023-01-18T07:32:14.100Z,69.84
2023-01-18T07:33:14.113Z,69.43
2023-01-18T07:34:14.103Z,70.11
2023-01-18T07:35:14.066Z,70.37
2023-01-18T07:36:14.057Z,72.04
2023-01-18T07:37:14.014Z,72.28
2023-01-18T07:38:13.994Z,69.58
2023-01-18T07:39:14.005Z,69.47
2023-01-18T07:40:13.967Z,68.97
2023-01-18T07:41:13.936Z,70.37
2023-01-18T07:42:13.919Z,70.68
2023-01-18T07:43:13.907Z,70.52
2023-01-18T07:44:13.941Z,69.01
2023-01-18T07:45:13.936Z,69.28
2023-01-18T07:46:13.893Z,67.23
2023-01-18T07:47:13.832Z,68.07
2023-01-18T07:48:13.816Z,70.07
2023-01-18T07:49:13.846Z,68.60
2023-01-18T07:50:13.793Z,69.74
2023-01-18T07:51:13.777Z,70.44
2023-01-18T07:52:13.788Z,70.76
2023-01-18T07:53:13.725Z,71.03
2023-01-18T07:54:13.744Z,70.39
2023-01-18T07:55:13.702Z,69.86
2023-01-18T07:56:13.698Z,70.22
2023-01-18T07:57:13.682Z,69.76
2023-01-18T07:58:13.651Z,69.54
2023-01-18T07:59:13.678Z,69.95
2023-01-18T08:00:13.623Z,70.03
2023-01-18T08:01:13.702Z,70.82
2023-01-18T08:02:13.611Z,69.34
2023-01-18T08:03:13.623Z,70.27
2023-01-18T08:04:13.613Z,70.05
2023-01-18T08:05:13.537Z,70.89
2023-01-18T08:06:13.529Z,71.41
2023-01-18T08:07:13.480Z,71.54
2023-01-18T08:08:13.470Z,72.76
2023-01-18T08:09:13.481Z,70.01
2023-01-18T08:10:13.493Z,72.76
2023-01-18T08:11:13.430Z,71.03
2023-01-18T08:12:13.396Z,70.40
2023-01-18T08:13:13.392Z,68.81
2023-01-18T08:14:13.407Z,69.17
2023-01-18T08:15:13.356Z,70.51
2023-01-18T08:16:13.375Z,69.45
2023-01-18T08:17:13.332Z,71.01
2023-01-18T08:18:13.308Z,70.08
2023-01-18T08:19:13.325Z,70.88
2023-01-18T08:20:13.266Z,70.48
2023-01-18T08:21:13.286Z,67.77
2023-01-18T08:22:13.252Z,67.81
2023-01-18T08:23:13.209Z,68.04
2023-01-18T08:24:13.225Z,68.33
2023-01-18T08:25:13.182Z,66.76
2023-01-18T08:26:13.172Z,66.95
2023-01-18T08:27:13.142Z,67.17
2023-01-18T08:28:13.131Z,67.79
2023-01-18T08:29:13.140Z,68.81
2023-01-18T08:30:13.099Z,66.56
2023-01-18T08:31:13.170Z,65.32
2023-01-18T08:32:13.079Z,66.28
2023-01-18T08:33:13.042Z,67.34
2023-01-18T08:34:13.055Z,67.32
2023-01-18T08:35:13.000Z,69.26
2023-01-18T08:36:12.996Z,68.64
2023-01-18T08:37:12.965Z,67.91
2023-01-18T08:38:12.995Z,66.97
2023-01-18T08:39:12.967Z,66.88
2023-01-18T08:40:12.917Z,69.34
2023-01-18T08:41:12.895Z,67.89
2023-01-18T08:42:12.907Z,68.26
2023-01-18T08:43:12.871Z,68.00
2023-01-18T08:44:12.885Z,67.08
2023-01-18T08:45:12.845Z,66.17
2023-01-18T08:46:12.824Z,68.47
2023-01-18T08:47:12.796Z,66.92
2023-01-18T08:48:12.794Z,67.72
2023-01-18T08:49:12.792Z,69.73
2023-01-18T08:50:12.783Z,66.75
2023-01-18T08:51:12.747Z,67.63
2023-01-18T08:52:12.716Z,68.30
2023-01-18T08:53:12.694Z,68.34
2023-01-18T08:54:12.701Z,67.57
2023-01-18T08:55:12.688Z,69.28
2023-01-18T08:56:12.659Z,68.43
2023-01-18T08:57:12.623Z,68.82
2023-01-18T08:58:12.604Z,69.09
2023-01-18T08:59:12.655Z,69.15
2023-01-18T09:00:12.610Z,66.37
2023-01-18T09:01:12.600Z,68.19
2023-01-18T09:02:12.586Z,68.33
2023-01-18T09:03:12.548Z,68.47
2023-01-18T09:04:12.515Z,68.39
2023-01-18T09:05:12.574Z,67.04
2023-01-18T09:06:13.190Z,68.64
2023-01-18T09:07:13.454Z,67.54
2023-01-18T09:08:12.437Z,67.39
2023-01-18T09:09:12.418Z,67.44
2023-01-18T09:10:12.465Z,67.62
2023-01-18T09:11:12.383Z,66.64
2023-01-18T09:12:12.361Z,68.48
2023-01-18T09:13:12.373Z,70.16
2023-01-18T09:14:12.338Z,69.62
2023-01-18T09:15:12.342Z,69.79
2023-01-18T09:16:12.347Z,68.79
2023-01-18T09:17:12.291Z,68.49
2023-01-18T09:18:12.265Z,67.17
2023-01-18T09:19:12.251Z,66.84
2023-01-18T09:20:12.272Z,68.54
2023-01-18T09:21:12.226Z,67.24
2023-01-18T09:22:12.203Z,66.10
2023-01-18T09:23:12.179Z,68.11
2023-01-18T09:24:12.160Z,69.49
2023-01-18T09:25:12.188Z,66.90
2023-01-18T09:26:12.126Z,65.80
2023-01-18T09:27:12.109Z,67.25
2023-01-18T09:28:12.115Z,68.32
2023-01-18T09:29:12.091Z,66.77
2023-01-18T09:30:12.084Z,67.55
2023-01-18T09:31:12.109Z,66.32
2023-01-18T09:32:12.035Z,68.94
2023-01-18T09:33:12.006Z,67.41
2023-01-18T09:34:19.384Z,66.34
2023-01-18T09:35:14.004Z,68.18
2023-01-18T09:36:11.961Z,67.61
2023-01-18T09:37:11.939Z,67.37
2023-01-18T09:38:11.927Z,69.70
2023-01-18T09:39:11.935Z,67.83
2023-01-18T09:40:11.919Z,68.16
2023-01-18T09:41:13.582Z,67.29
2023-01-18T09:42:11.856Z,68.28
2023-01-18T09:43:11.835Z,67.83
2023-01-18T09:44:11.824Z,67.33
2023-01-18T09:45:11.912Z,67.85
2023-01-18T09:46:11.867Z,68.12
2023-01-18T09:47:11.785Z,66.23
2023-01-18T09:48:11.744Z,65.16
2023-01-18T09:49:11.730Z,66.99
2023-01-18T09:50:11.752Z,67.48
2023-01-18T09:51:11.711Z,67.80
2023-01-18T09:52:11.707Z,67.48
2023-01-18T09:53:11.676Z,69.08
2023-01-18T09:54:11.687Z,68.05
2023-01-18T09:55:11.668Z,65.76
2023-01-18T09:56:11.613Z,68.61
2023-01-18T09:57:11.596Z,67.25
2023-01-18T09:58:11.596Z,68.05
2023-01-18T09:59:11.563Z,66.99
2023-01-18T10:00:11.577Z,67.81
2023-01-18T10:01:11.627Z,66.76
2023-01-18T10:02:11.613Z,66.93
2023-01-18T10:03:11.496Z,67.15
2023-01-18T10:04:11.491Z,67.96
2023-01-18T10:05:11.509Z,65.34
2023-01-18T10:06:11.466Z,67.09
2023-01-18T10:07:11.423Z,68.94
2023-01-18T10:08:11.416Z,67.84
2023-01-18T10:09:11.388Z,66.85
2023-01-18T10:10:11.412Z,66.75
2023-01-18T10:11:11.363Z,66.04
2023-01-18T10:12:11.342Z,66.55
2023-01-18T10:13:11.321Z,67.90
2023-01-18T10:14:11.315Z,66.67
2023-01-18T10:15:11.319Z,68.69
2023-01-18T10:16:11.283Z,69.63
2023-01-18T10:17:11.246Z,67.17
2023-01-18T10:18:11.247Z,67.39
2023-01-18T10:19:11.246Z,68.60
2023-01-18T10:20:11.200Z,68.16
2023-01-18T10:21:11.220Z,67.86
2023-01-18T10:22:11.164Z,66.59
2023-01-18T10:23:11.152Z,67.06
2023-01-18T10:24:11.133Z,68.29
2023-01-18T10:25:11.120Z,66.94
2023-01-18T10:26:11.129Z,68.52
2023-01-18T10:27:11.086Z,67.96
2023-01-18T10:28:11.052Z,68.96
2023-01-18T10:29:11.047Z,68.64
2023-01-18T10:30:11.030Z,68.58
2023-01-18T10:31:11.063Z,65.56
2023-01-18T10:32:10.982Z,66.14
2023-01-18T10:33:10.972Z,67.38
2023-01-18T10:34:10.945Z,67.44
2023-01-18T10:35:10.938Z,66.39
2023-01-18T10:36:11.850Z,66.79
2023-01-18T10:37:11.895Z,67.74
2023-01-18T10:38:10.880Z,66.53
2023-01-18T10:39:10.867Z,67.60
2023-01-18T10:40:10.855Z,67.17
2023-01-18T10:41:10.907Z,69.33
2023-01-18T10:42:10.813Z,67.35
2023-01-18T10:43:10.794Z,67.39
2023-01-18T10:44:10.766Z,68.08
2023-01-18T10:45:10.756Z,67.53
2023-01-18T10:46:10.798Z,69.11
2023-01-18T10:47:10.723Z,69.58
2023-01-18T10:48:10.719Z,68.42
2023-01-18T10:49:10.685Z,67.28
2023-01-18T10:50:10.684Z,67.38
2023-01-18T10:51:10.689Z,67.55
2023-01-18T10:52:10.650Z,67.20
2023-01-18T10:53:10.615Z,66.71
2023-01-18T10:54:10.601Z,66.10
2023-01-18T10:55:10.592Z,68.88
2023-01-18T10:56:10.611Z,69.05
2023-01-18T10:57:10.551Z,68.36
2023-01-18T10:58:10.540Z,69.24
2023-01-18T10:59:10.536Z,68.35
2023-01-18T11:00:10.498Z,66.48
2023-01-18T11:01:10.594Z,68.13
2023-01-18T11:02:10.583Z,68.12
2023-01-18T11:03:10.468Z,68.64
2023-01-18T11:04:10.437Z,67.16
2023-01-18T11:05:10.422Z,69.46
2023-01-18T11:06:10.435Z,69.39
2023-01-18T11:07:10.399Z,68.69
2023-01-18T11:08:10.385Z,67.79
2023-01-18T11:09:10.352Z,67.07
2023-01-18T11:10:10.363Z,66.71
2023-01-18T11:11:10.366Z,66.49
2023-01-18T11:12:10.319Z,65.20
2023-01-18T11:13:10.287Z,65.75
2023-01-18T11:14:10.289Z,67.06
2023-01-18T11:15:10.257Z,66.78
2023-01-18T11:16:10.348Z,67.91
2023-01-18T11:17:10.225Z,67.14
2023-01-18T11:18:10.216Z,67.32
2023-01-18T11:19:10.220Z,67.81
2023-01-18T11:20:10.184Z,66.55
2023-01-18T11:21:10.193Z,68.33
2023-01-18T11:22:10.137Z,67.90
2023-01-18T11:23:10.135Z,67.24
2023-01-18T11:24:10.115Z,67.83
2023-01-18T11:25:10.109Z,67.02
2023-01-18T11:26:10.107Z,67.50
2023-01-18T11:27:10.069Z,68.11
2023-01-18T11:28:10.049Z,67.30
2023-01-18T11:29:10.078Z,65.75
2023-01-18T11:30:10.069Z,66.59
2023-01-18T11:31:10.020Z,68.00
2023-01-18T11:32:10.012Z,67.54
2023-01-18T11:33:09.959Z,67.40
2023-01-18T11:34:09.959Z,68.63
2023-01-18T11:35:09.942Z,67.38
2023-01-18T11:36:09.948Z,66.81
2023-01-18T11:37:09.898Z,66.63
2023-01-18T11:38:09.885Z,65.04
2023-01-18T11:39:09.860Z,66.34
2023-01-18T11:40:09.845Z,66.51
2023-01-18T11:41:09.858Z,66.64
2023-01-18T11:42:09.815Z,66.17
2023-01-18T11:43:09.795Z,68.41
2023-01-18T11:44:09.810Z,67.68
2023-01-18T11:45:09.778Z,68.82
2023-01-18T11:46:09.811Z,66.42
2023-01-18T11:47:09.753Z,66.58
2023-01-18T11:48:09.745Z,68.00
2023-01-18T11:49:09.704Z,65.55
2023-01-18T11:50:21.783Z,66.45
2023-01-18T11:51:11.721Z,67.22
2023-01-18T11:52:09.639Z,66.75
2023-01-18T11:53:09.630Z,67.57
2023-01-18T11:54:09.635Z,66.80
2023-01-18T11:55:09.667Z,66.23
2023-01-18T11:56:09.613Z,67.50
2023-01-18T11:57:09.606Z,66.41
2023-01-18T11:58:09.566Z,64.96
2023-01-18T11:59:09.541Z,68.03
2023-01-18T12:00:09.690Z,66.95
2023-01-18T12:01:10.588Z,67.63
2023-01-18T12:02:09.547Z,66.03
2023-01-18T12:03:09.548Z,67.72
2023-01-18T12:04:09.464Z,67.74
2023-01-18T12:05:09.451Z,67.28
2023-01-18T12:06:09.470Z,67.78
2023-01-18T12:07:09.409Z,68.70
2023-01-18T12:08:09.388Z,66.89
2023-01-18T12:09:09.383Z,67.71
2023-01-18T12:10:09.396Z,68.08
2023-01-18T12:11:09.364Z,68.16
2023-01-18T12:12:18.494Z,66.28
2023-01-18T12:13:11.314Z,68.56
2023-01-18T12:14:09.284Z,67.36
2023-01-18T12:15:09.269Z,68.04
2023-01-18T12:16:09.370Z,64.63
2023-01-18T12:17:09.293Z,65.47
2023-01-18T12:18:13.318Z,68.45
2023-01-18T12:19:41.581Z,67.76
2023-01-18T12:20:09.235Z,66.34
2023-01-18T12:21:09.200Z,68.19
2023-01-18T12:22:09.181Z,67.53
2023-01-18T12:23:09.141Z,66.04
2023-01-18T12:24:09.124Z,65.51
2023-01-18T12:25:09.107Z,67.33
2023-01-18T12:26:12.591Z,66.85
2023-01-18T12:27:10.103Z,67.05
2023-01-18T12:28:09.106Z,66.95
2023-01-18T12:29:09.046Z,67.37
2023-01-18T12:30:09.042Z,67.40
2023-01-18T12:31:09.074Z,66.94
2023-01-18T12:32:09.021Z,67.54
2023-01-18T12:33:08.997Z,67.03
2023-01-18T12:34:08.987Z,72.24
2023-01-18T12:35:23.002Z,66.90
2023-01-18T12:36:10.995Z,67.15
2023-01-18T12:37:08.924Z,66.08
2023-01-18T12:38:08.896Z,67.22
2023-01-18T12:39:08.900Z,67.61
2023-01-18T12:40:08.868Z,68.75
2023-01-18T12:41:08.910Z,66.69
2023-01-18T12:42:08.820Z,67.18
2023-01-18T12:43:08.798Z,68.14
2023-01-18T12:44:08.782Z,66.06
2023-01-18T12:45:08.778Z,67.16
2023-01-18T12:46:08.801Z,68.74
2023-01-18T12:47:08.805Z,67.97
2023-01-18T12:48:08.723Z,67.10
2023-01-18T12:49:08.725Z,66.58
2023-01-18T12:50:08.726Z,67.91
2023-01-18T12:51:08.695Z,66.11
2023-01-18T12:52:18.507Z,66.82